sensor_id;sensor_type;location;lat;lon;timestamp;temperature;humidity
21602;DHT22;10963;50.934;4.668;2023-04-08T00:00:56;10.60;99.90
21602;DHT22;10963;50.934;4.668;2023-04-08T00:03:22;10.70;99.90
21602;DHT22;10963;50.934;4.668;2023-04-08T00:05:47;10.70;99.90
21602;DHT22;10963;50.934;4.668;2023-04-08T00:08:15;10.80;99.90
21602;DHT22;10963;50.934;4.668;2023-04-08T00:10:43;10.70;99.90
21602;DHT22;10963;50.934;4.668;2023-04-08T00:13:09;10.60;99.90
21602;DHT22;10963;50.934;4.668;2023-04-08T00:15:38;10.60;99.90
21602;DHT22;10963;50.934;4.668;2023-04-08T00:18:03;10.60;99.90
21602;DHT22;10963;50.934;4.668;2023-04-08T00:20:31;10.60;99.90
21602;DHT22;10963;50.934;4.668;2023-04-08T00:23:02;10.60;99.90
21602;DHT22;10963;50.934;4.668;2023-04-08T00:25:32;10.60;99.90
21602;DHT22;10963;50.934;4.668;2023-04-08T00:28:02;10.60;99.90
21602;DHT22;10963;50.934;4.668;2023-04-08T00:30:29;10.60;99.90
21602;DHT22;10963;50.934;4.668;2023-04-08T00:32:54;10.50;99.90
21602;DHT22;10963;50.934;4.668;2023-04-08T00:35:25;10.50;99.90
21602;DHT22;10963;50.934;4.668;2023-04-08T00:37:53;10.50;99.90
21602;DHT22;10963;50.934;4.668;2023-04-08T00:40:21;10.50;99.90
21602;DHT22;10963;50.934;4.668;2023-04-08T00:42:49;10.50;99.90
21602;DHT22;10963;50.934;4.668;2023-04-08T00:45:18;10.60;99.90
21602;DHT22;10963;50.934;4.668;2023-04-08T00:47:43;10.60;99.90
21602;DHT22;10963;50.934;4.668;2023-04-08T00:50:11;10.60;99.90
21602;DHT22;10963;50.934;4.668;2023-04-08T00:52:36;10.60;99.90
21602;DHT22;10963;50.934;4.668;2023-04-08T00:55:05;10.60;99.90
21602;DHT22;10963;50.934;4.668;2023-04-08T00:57:35;10.60;99.90
21602;DHT22;10963;50.934;4.668;2023-04-08T01:00:03;10.60;99.90
21602;DHT22;10963;50.934;4.668;2023-04-08T01:02:46;10.60;99.90
21602;DHT22;10963;50.934;4.668;2023-04-08T01:05:27;10.60;99.90
21602;DHT22;10963;50.934;4.668;2023-04-08T01:07:55;10.50;99.90
21602;DHT22;10963;50.934;4.668;2023-04-08T01:10:29;10.50;99.90
21602;DHT22;10963;50.934;4.668;2023-04-08T01:13:04;10.50;99.90
21602;DHT22;10963;50.934;4.668;2023-04-08T01:15:36;10.50;99.90
21602;DHT22;10963;50.934;4.668;2023-04-08T01:18:07;10.50;99.90
21602;DHT22;10963;50.934;4.668;2023-04-08T01:20:40;10.50;99.90
21602;DHT22;10963;50.934;4.668;2023-04-08T01:23:18;10.50;99.90
21602;DHT22;10963;50.934;4.668;2023-04-08T01:25:50;10.50;99.90
21602;DHT22;10963;50.934;4.668;2023-04-08T01:28:20;10.50;99.90
21602;DHT22;10963;50.934;4.668;2023-04-08T01:30:48;10.50;99.90
21602;DHT22;10963;50.934;4.668;2023-04-08T01:33:17;10.50;99.90
21602;DHT22;10963;50.934;4.668;2023-04-08T01:35:46;10.50;99.90
21602;DHT22;10963;50.934;4.668;2023-04-08T01:38:19;10.50;99.90
21602;DHT22;10963;50.934;4.668;2023-04-08T01:40:46;10.50;99.90
21602;DHT22;10963;50.934;4.668;2023-04-08T01:43:13;10.50;99.90
21602;DHT22;10963;50.934;4.668;2023-04-08T01:45:43;10.50;99.90
21602;DHT22;10963;50.934;4.668;2023-04-08T01:48:13;10.50;99.90
21602;DHT22;10963;50.934;4.668;2023-04-08T01:50:43;10.40;99.90
21602;DHT22;10963;50.934;4.668;2023-04-08T01:53:10;10.50;99.90
21602;DHT22;10963;50.934;4.668;2023-04-08T01:55:37;10.50;99.90
21602;DHT22;10963;50.934;4.668;2023-04-08T01:58:08;10.50;99.90
21602;DHT22;10963;50.934;4.668;2023-04-08T02:00:36;10.50;99.90
21602;DHT22;10963;50.934;4.668;2023-04-08T02:03:06;10.40;99.90
21602;DHT22;10963;50.934;4.668;2023-04-08T02:05:34;10.50;99.90
21602;DHT22;10963;50.934;4.668;2023-04-08T02:07:59;10.40;99.90
21602;DHT22;10963;50.934;4.668;2023-04-08T02:10:25;10.40;99.90
21602;DHT22;10963;50.934;4.668;2023-04-08T02:12:51;10.40;99.90
21602;DHT22;10963;50.934;4.668;2023-04-08T02:15:17;10.40;99.90
21602;DHT22;10963;50.934;4.668;2023-04-08T02:17:50;10.40;99.90
21602;DHT22;10963;50.934;4.668;2023-04-08T02:20:19;10.40;99.90
21602;DHT22;10963;50.934;4.668;2023-04-08T02:22:47;10.40;99.90
21602;DHT22;10963;50.934;4.668;2023-04-08T02:25:22;10.40;99.90
21602;DHT22;10963;50.934;4.668;2023-04-08T02:27:53;10.40;99.90
21602;DHT22;10963;50.934;4.668;2023-04-08T02:30:20;10.40;99.90
21602;DHT22;10963;50.934;4.668;2023-04-08T02:32:47;10.40;99.90
21602;DHT22;10963;50.934;4.668;2023-04-08T02:35:17;10.40;99.90
21602;DHT22;10963;50.934;4.668;2023-04-08T02:37:46;10.40;99.90
21602;DHT22;10963;50.934;4.668;2023-04-08T02:40:27;10.40;99.90
21602;DHT22;10963;50.934;4.668;2023-04-08T02:42:56;10.50;99.90
21602;DHT22;10963;50.934;4.668;2023-04-08T02:45:29;10.40;99.90
21602;DHT22;10963;50.934;4.668;2023-04-08T02:47:56;10.40;99.90
21602;DHT22;10963;50.934;4.668;2023-04-08T02:50:24;10.40;99.90
21602;DHT22;10963;50.934;4.668;2023-04-08T02:52:52;10.40;99.90
21602;DHT22;10963;50.934;4.668;2023-04-08T02:55:18;10.30;99.90
21602;DHT22;10963;50.934;4.668;2023-04-08T02:57:45;10.30;99.90
21602;DHT22;10963;50.934;4.668;2023-04-08T03:00:12;10.30;99.90
21602;DHT22;10963;50.934;4.668;2023-04-08T03:02:37;10.30;99.90
21602;DHT22;10963;50.934;4.668;2023-04-08T03:05:03;10.30;99.90
21602;DHT22;10963;50.934;4.668;2023-04-08T03:07:30;10.20;99.90
21602;DHT22;10963;50.934;4.668;2023-04-08T03:09:56;10.20;99.90
21602;DHT22;10963;50.934;4.668;2023-04-08T03:12:24;10.20;99.90
21602;DHT22;10963;50.934;4.668;2023-04-08T03:14:51;10.30;99.90
21602;DHT22;10963;50.934;4.668;2023-04-08T03:17:22;10.20;99.90
21602;DHT22;10963;50.934;4.668;2023-04-08T03:19:48;10.30;99.90
21602;DHT22;10963;50.934;4.668;2023-04-08T03:22:13;10.30;99.90
21602;DHT22;10963;50.934;4.668;2023-04-08T03:24:41;10.30;99.90
21602;DHT22;10963;50.934;4.668;2023-04-08T03:27:09;10.30;99.90
21602;DHT22;10963;50.934;4.668;2023-04-08T03:29:37;10.30;99.90
21602;DHT22;10963;50.934;4.668;2023-04-08T03:32:03;10.30;99.90
21602;DHT22;10963;50.934;4.668;2023-04-08T03:34:35;10.30;99.90
21602;DHT22;10963;50.934;4.668;2023-04-08T03:37:01;10.40;99.90
21602;DHT22;10963;50.934;4.668;2023-04-08T03:39:29;10.40;99.90
21602;DHT22;10963;50.934;4.668;2023-04-08T03:41:55;10.40;99.90
21602;DHT22;10963;50.934;4.668;2023-04-08T03:44:25;10.30;99.90
21602;DHT22;10963;50.934;4.668;2023-04-08T03:46:51;10.30;99.90
21602;DHT22;10963;50.934;4.668;2023-04-08T03:49:19;10.40;99.90
21602;DHT22;10963;50.934;4.668;2023-04-08T03:51:45;10.40;99.90
21602;DHT22;10963;50.934;4.668;2023-04-08T03:54:13;10.40;99.90
21602;DHT22;10963;50.934;4.668;2023-04-08T03:56:39;10.40;99.90
21602;DHT22;10963;50.934;4.668;2023-04-08T03:59:04;10.40;99.90
21602;DHT22;10963;50.934;4.668;2023-04-08T04:01:32;10.30;99.90
21602;DHT22;10963;50.934;4.668;2023-04-08T04:04:00;10.30;99.90
21602;DHT22;10963;50.934;4.668;2023-04-08T04:06:26;10.30;99.90
21602;DHT22;10963;50.934;4.668;2023-04-08T04:08:55;10.30;99.90
21602;DHT22;10963;50.934;4.668;2023-04-08T04:11:20;10.20;99.90
21602;DHT22;10963;50.934;4.668;2023-04-08T04:13:49;10.20;99.90
21602;DHT22;10963;50.934;4.668;2023-04-08T04:16:15;10.20;99.90
21602;DHT22;10963;50.934;4.668;2023-04-08T04:18:45;10.20;99.90
21602;DHT22;10963;50.934;4.668;2023-04-08T04:21:16;10.10;99.90
21602;DHT22;10963;50.934;4.668;2023-04-08T04:23:46;10.10;99.90
21602;DHT22;10963;50.934;4.668;2023-04-08T04:26:12;10.20;99.90
21602;DHT22;10963;50.934;4.668;2023-04-08T04:28:40;10.20;99.90
21602;DHT22;10963;50.934;4.668;2023-04-08T04:31:20;10.20;99.90
21602;DHT22;10963;50.934;4.668;2023-04-08T04:33:48;10.20;99.90
21602;DHT22;10963;50.934;4.668;2023-04-08T04:36:14;10.20;99.90
21602;DHT22;10963;50.934;4.668;2023-04-08T04:38:40;10.10;99.90
21602;DHT22;10963;50.934;4.668;2023-04-08T04:41:11;10.10;99.90
21602;DHT22;10963;50.934;4.668;2023-04-08T04:43:37;10.10;99.90
21602;DHT22;10963;50.934;4.668;2023-04-08T04:46:05;10.10;99.90
21602;DHT22;10963;50.934;4.668;2023-04-08T04:48:38;10.10;99.90
21602;DHT22;10963;50.934;4.668;2023-04-08T04:51:04;10.10;99.90
21602;DHT22;10963;50.934;4.668;2023-04-08T04:53:31;10.10;99.90
21602;DHT22;10963;50.934;4.668;2023-04-08T04:55:57;10.10;99.90
21602;DHT22;10963;50.934;4.668;2023-04-08T04:58:25;10.10;99.90
21602;DHT22;10963;50.934;4.668;2023-04-08T05:00:51;10.00;99.90
21602;DHT22;10963;50.934;4.668;2023-04-08T05:03:17;10.00;99.90
21602;DHT22;10963;50.934;4.668;2023-04-08T05:05:42;10.10;99.90
21602;DHT22;10963;50.934;4.668;2023-04-08T05:08:08;10.10;99.90
21602;DHT22;10963;50.934;4.668;2023-04-08T05:10:34;10.10;99.90
21602;DHT22;10963;50.934;4.668;2023-04-08T05:13:00;10.20;99.90
21602;DHT22;10963;50.934;4.668;2023-04-08T05:15:30;10.20;99.90
21602;DHT22;10963;50.934;4.668;2023-04-08T05:17:56;10.20;99.90
21602;DHT22;10963;50.934;4.668;2023-04-08T05:20:26;10.20;99.90
21602;DHT22;10963;50.934;4.668;2023-04-08T05:22:52;10.30;99.90
21602;DHT22;10963;50.934;4.668;2023-04-08T05:25:20;10.20;99.90
21602;DHT22;10963;50.934;4.668;2023-04-08T05:27:51;10.30;99.90
21602;DHT22;10963;50.934;4.668;2023-04-08T05:30:19;10.30;99.90
21602;DHT22;10963;50.934;4.668;2023-04-08T05:32:45;10.30;99.90
21602;DHT22;10963;50.934;4.668;2023-04-08T05:35:11;10.30;99.90
21602;DHT22;10963;50.934;4.668;2023-04-08T05:37:37;10.40;99.90
21602;DHT22;10963;50.934;4.668;2023-04-08T05:40:05;10.40;99.90
21602;DHT22;10963;50.934;4.668;2023-04-08T05:42:36;10.40;99.90
21602;DHT22;10963;50.934;4.668;2023-04-08T05:45:02;10.40;99.90
21602;DHT22;10963;50.934;4.668;2023-04-08T05:47:28;10.40;99.90
21602;DHT22;10963;50.934;4.668;2023-04-08T05:49:54;10.40;99.90
21602;DHT22;10963;50.934;4.668;2023-04-08T05:52:19;10.20;99.90
21602;DHT22;10963;50.934;4.668;2023-04-08T05:54:50;10.20;99.90
21602;DHT22;10963;50.934;4.668;2023-04-08T05:57:16;10.20;99.90
21602;DHT22;10963;50.934;4.668;2023-04-08T05:59:44;10.30;99.90
21602;DHT22;10963;50.934;4.668;2023-04-08T06:02:14;10.40;99.90
21602;DHT22;10963;50.934;4.668;2023-04-08T06:04:42;10.50;99.90
21602;DHT22;10963;50.934;4.668;2023-04-08T06:07:10;10.50;99.90
21602;DHT22;10963;50.934;4.668;2023-04-08T06:09:36;10.60;99.90
21602;DHT22;10963;50.934;4.668;2023-04-08T06:12:03;10.70;99.90
21602;DHT22;10963;50.934;4.668;2023-04-08T06:14:28;10.90;99.90
21602;DHT22;10963;50.934;4.668;2023-04-08T06:16:58;11.10;99.90
21602;DHT22;10963;50.934;4.668;2023-04-08T06:19:31;11.30;99.90
21602;DHT22;10963;50.934;4.668;2023-04-08T06:21:59;11.40;99.90
21602;DHT22;10963;50.934;4.668;2023-04-08T06:24:28;11.50;99.90
21602;DHT22;10963;50.934;4.668;2023-04-08T06:26:56;11.70;99.90
21602;DHT22;10963;50.934;4.668;2023-04-08T06:29:24;11.80;99.90
21602;DHT22;10963;50.934;4.668;2023-04-08T06:31:52;11.80;99.90
21602;DHT22;10963;50.934;4.668;2023-04-08T06:34:20;11.60;99.90
21602;DHT22;10963;50.934;4.668;2023-04-08T06:36:45;11.40;99.90
21602;DHT22;10963;50.934;4.668;2023-04-08T06:39:12;11.50;99.90
21602;DHT22;10963;50.934;4.668;2023-04-08T06:41:41;11.50;99.90
21602;DHT22;10963;50.934;4.668;2023-04-08T06:44:09;11.50;99.90
21602;DHT22;10963;50.934;4.668;2023-04-08T06:46:40;11.70;99.90
21602;DHT22;10963;50.934;4.668;2023-04-08T06:49:08;11.80;99.90
21602;DHT22;10963;50.934;4.668;2023-04-08T06:51:33;11.90;99.90
21602;DHT22;10963;50.934;4.668;2023-04-08T06:53:59;11.90;99.90
21602;DHT22;10963;50.934;4.668;2023-04-08T06:56:27;12.00;99.90
21602;DHT22;10963;50.934;4.668;2023-04-08T06:58:55;12.10;99.90
21602;DHT22;10963;50.934;4.668;2023-04-08T07:01:25;11.80;99.90
21602;DHT22;10963;50.934;4.668;2023-04-08T07:03:51;12.20;99.90
21602;DHT22;10963;50.934;4.668;2023-04-08T07:06:19;11.90;99.90
21602;DHT22;10963;50.934;4.668;2023-04-08T07:08:47;11.70;99.90
21602;DHT22;10963;50.934;4.668;2023-04-08T07:11:13;11.70;99.90
21602;DHT22;10963;50.934;4.668;2023-04-08T07:13:38;11.70;99.90
21602;DHT22;10963;50.934;4.668;2023-04-08T07:16:06;11.80;99.90
21602;DHT22;10963;50.934;4.668;2023-04-08T07:18:34;12.00;99.90
21602;DHT22;10963;50.934;4.668;2023-04-08T07:21:03;12.00;99.90
21602;DHT22;10963;50.934;4.668;2023-04-08T07:23:36;11.90;99.90
21602;DHT22;10963;50.934;4.668;2023-04-08T07:26:02;12.00;99.90
21602;DHT22;10963;50.934;4.668;2023-04-08T07:28:30;12.10;99.90
21602;DHT22;10963;50.934;4.668;2023-04-08T07:31:10;12.20;99.90
21602;DHT22;10963;50.934;4.668;2023-04-08T07:33:41;12.50;99.90
21602;DHT22;10963;50.934;4.668;2023-04-08T07:36:10;12.70;99.90
21602;DHT22;10963;50.934;4.668;2023-04-08T07:38:37;12.90;99.90
21602;DHT22;10963;50.934;4.668;2023-04-08T07:41:03;13.10;99.90
21602;DHT22;10963;50.934;4.668;2023-04-08T07:43:32;13.10;99.90
21602;DHT22;10963;50.934;4.668;2023-04-08T07:46:04;13.20;99.90
21602;DHT22;10963;50.934;4.668;2023-04-08T07:48:31;13.50;99.90
21602;DHT22;10963;50.934;4.668;2023-04-08T07:50:57;13.90;99.90
21602;DHT22;10963;50.934;4.668;2023-04-08T07:53:27;14.30;99.90
21602;DHT22;10963;50.934;4.668;2023-04-08T07:55:52;14.50;99.90
21602;DHT22;10963;50.934;4.668;2023-04-08T07:58:18;14.60;99.90
21602;DHT22;10963;50.934;4.668;2023-04-08T08:00:46;14.60;99.90
21602;DHT22;10963;50.934;4.668;2023-04-08T08:03:12;14.90;99.90
21602;DHT22;10963;50.934;4.668;2023-04-08T08:05:37;14.90;99.90
21602;DHT22;10963;50.934;4.668;2023-04-08T08:08:03;14.90;99.90
21602;DHT22;10963;50.934;4.668;2023-04-08T08:10:29;14.60;99.90
21602;DHT22;10963;50.934;4.668;2023-04-08T08:12:55;14.60;99.90
21602;DHT22;10963;50.934;4.668;2023-04-08T08:15:23;14.70;99.90
21602;DHT22;10963;50.934;4.668;2023-04-08T08:17:51;14.60;99.90
21602;DHT22;10963;50.934;4.668;2023-04-08T08:20:16;14.80;99.90
21602;DHT22;10963;50.934;4.668;2023-04-08T08:22:42;14.80;99.90
21602;DHT22;10963;50.934;4.668;2023-04-08T08:25:10;14.80;99.90
21602;DHT22;10963;50.934;4.668;2023-04-08T08:27:38;14.80;99.90
21602;DHT22;10963;50.934;4.668;2023-04-08T08:30:07;14.70;99.90
21602;DHT22;10963;50.934;4.668;2023-04-08T08:32:34;14.70;99.90
21602;DHT22;10963;50.934;4.668;2023-04-08T08:35:00;14.30;99.90
21602;DHT22;10963;50.934;4.668;2023-04-08T08:37:25;14.30;99.90
21602;DHT22;10963;50.934;4.668;2023-04-08T08:39:51;14.50;99.90
21602;DHT22;10963;50.934;4.668;2023-04-08T08:42:25;14.60;99.90
21602;DHT22;10963;50.934;4.668;2023-04-08T08:44:53;14.70;99.90
21602;DHT22;10963;50.934;4.668;2023-04-08T08:47:21;14.30;99.90
21602;DHT22;10963;50.934;4.668;2023-04-08T08:49:51;14.30;99.90
21602;DHT22;10963;50.934;4.668;2023-04-08T08:52:17;14.30;99.90
21602;DHT22;10963;50.934;4.668;2023-04-08T08:54:46;14.40;99.90
21602;DHT22;10963;50.934;4.668;2023-04-08T08:57:19;14.90;99.90
21602;DHT22;10963;50.934;4.668;2023-04-08T08:59:46;15.10;99.90
21602;DHT22;10963;50.934;4.668;2023-04-08T09:02:32;15.10;99.90
21602;DHT22;10963;50.934;4.668;2023-04-08T09:05:02;15.10;99.90
21602;DHT22;10963;50.934;4.668;2023-04-08T09:07:34;15.30;99.90
21602;DHT22;10963;50.934;4.668;2023-04-08T09:10:00;15.90;99.90
21602;DHT22;10963;50.934;4.668;2023-04-08T09:12:26;16.20;99.90
21602;DHT22;10963;50.934;4.668;2023-04-08T09:15:10;16.40;99.90
21602;DHT22;10963;50.934;4.668;2023-04-08T09:17:39;16.80;99.90
21602;DHT22;10963;50.934;4.668;2023-04-08T09:20:12;16.70;99.90
21602;DHT22;10963;50.934;4.668;2023-04-08T09:22:59;16.70;99.90
21602;DHT22;10963;50.934;4.668;2023-04-08T09:25:31;16.50;99.90
21602;DHT22;10963;50.934;4.668;2023-04-08T09:27:58;15.90;99.90
21602;DHT22;10963;50.934;4.668;2023-04-08T09:30:26;15.60;99.90
21602;DHT22;10963;50.934;4.668;2023-04-08T09:32:53;15.30;99.90
21602;DHT22;10963;50.934;4.668;2023-04-08T09:35:24;15.20;99.90
21602;DHT22;10963;50.934;4.668;2023-04-08T09:37:50;15.00;99.90
21602;DHT22;10963;50.934;4.668;2023-04-08T09:40:19;14.90;99.90
21602;DHT22;10963;50.934;4.668;2023-04-08T09:42:46;15.20;99.90
21602;DHT22;10963;50.934;4.668;2023-04-08T09:45:14;15.20;99.90
21602;DHT22;10963;50.934;4.668;2023-04-08T09:50:25;15.70;99.90
21602;DHT22;10963;50.934;4.668;2023-04-08T09:53:04;16.20;99.90
21602;DHT22;10963;50.934;4.668;2023-04-08T09:55:33;16.50;99.90
21602;DHT22;10963;50.934;4.668;2023-04-08T09:58:02;16.90;99.90
21602;DHT22;10963;50.934;4.668;2023-04-08T10:00:35;16.70;99.90
21602;DHT22;10963;50.934;4.668;2023-04-08T10:03:38;16.10;99.90
21602;DHT22;10963;50.934;4.668;2023-04-08T10:06:07;16.00;99.90
21602;DHT22;10963;50.934;4.668;2023-04-08T10:08:36;15.60;99.90
21602;DHT22;10963;50.934;4.668;2023-04-08T10:11:02;15.40;99.90
21602;DHT22;10963;50.934;4.668;2023-04-08T10:13:29;15.20;99.90
21602;DHT22;10963;50.934;4.668;2023-04-08T10:18:43;14.70;99.90
21602;DHT22;10963;50.934;4.668;2023-04-08T10:21:35;14.90;99.90
21602;DHT22;10963;50.934;4.668;2023-04-08T10:24:11;15.00;99.90
21602;DHT22;10963;50.934;4.668;2023-04-08T10:26:41;14.90;99.90
21602;DHT22;10963;50.934;4.668;2023-04-08T10:29:29;15.00;99.90
21602;DHT22;10963;50.934;4.668;2023-04-08T10:31:55;15.20;99.90
21602;DHT22;10963;50.934;4.668;2023-04-08T10:34:23;15.40;99.90
21602;DHT22;10963;50.934;4.668;2023-04-08T10:36:54;15.50;99.90
21602;DHT22;10963;50.934;4.668;2023-04-08T10:39:23;15.70;99.90
21602;DHT22;10963;50.934;4.668;2023-04-08T10:41:49;15.70;99.90
21602;DHT22;10963;50.934;4.668;2023-04-08T10:44:22;16.10;99.90
21602;DHT22;10963;50.934;4.668;2023-04-08T10:46:50;16.40;99.90
21602;DHT22;10963;50.934;4.668;2023-04-08T10:49:18;16.40;99.90
21602;DHT22;10963;50.934;4.668;2023-04-08T10:51:45;16.70;99.90
21602;DHT22;10963;50.934;4.668;2023-04-08T10:54:12;16.90;99.90
21602;DHT22;10963;50.934;4.668;2023-04-08T10:56:45;17.10;99.90
21602;DHT22;10963;50.934;4.668;2023-04-08T10:59:13;17.20;99.90
21602;DHT22;10963;50.934;4.668;2023-04-08T11:01:42;17.00;99.90
21602;DHT22;10963;50.934;4.668;2023-04-08T11:04:16;16.70;99.90
21602;DHT22;10963;50.934;4.668;2023-04-08T11:06:48;16.60;99.90
21602;DHT22;10963;50.934;4.668;2023-04-08T11:09:14;16.80;99.90
21602;DHT22;10963;50.934;4.668;2023-04-08T11:11:42;16.80;99.90
21602;DHT22;10963;50.934;4.668;2023-04-08T11:14:08;17.00;99.90
21602;DHT22;10963;50.934;4.668;2023-04-08T11:16:37;17.10;99.90
21602;DHT22;10963;50.934;4.668;2023-04-08T11:19:04;17.20;99.90
21602;DHT22;10963;50.934;4.668;2023-04-08T11:21:31;17.30;99.90
21602;DHT22;10963;50.934;4.668;2023-04-08T11:23:57;17.60;99.90
21602;DHT22;10963;50.934;4.668;2023-04-08T11:26:24;17.20;99.90
21602;DHT22;10963;50.934;4.668;2023-04-08T11:28:50;17.10;99.90
21602;DHT22;10963;50.934;4.668;2023-04-08T11:31:17;16.60;99.90
21602;DHT22;10963;50.934;4.668;2023-04-08T11:33:45;16.40;99.90
21602;DHT22;10963;50.934;4.668;2023-04-08T11:36:12;16.60;99.90
21602;DHT22;10963;50.934;4.668;2023-04-08T11:38:41;17.10;99.90
21602;DHT22;10963;50.934;4.668;2023-04-08T11:41:10;17.10;99.90
21602;DHT22;10963;50.934;4.668;2023-04-08T11:43:44;17.10;99.90
21602;DHT22;10963;50.934;4.668;2023-04-08T11:46:14;16.90;99.90
21602;DHT22;10963;50.934;4.668;2023-04-08T11:48:59;16.50;99.90
21602;DHT22;10963;50.934;4.668;2023-04-08T11:51:25;16.00;99.90
21602;DHT22;10963;50.934;4.668;2023-04-08T11:53:52;15.70;99.90
21602;DHT22;10963;50.934;4.668;2023-04-08T11:56:22;15.70;99.90
21602;DHT22;10963;50.934;4.668;2023-04-08T11:58:49;16.00;99.90
21602;DHT22;10963;50.934;4.668;2023-04-08T12:01:14;16.20;99.90
21602;DHT22;10963;50.934;4.668;2023-04-08T12:04:02;16.50;99.90
21602;DHT22;10963;50.934;4.668;2023-04-08T12:06:28;16.90;99.90
21602;DHT22;10963;50.934;4.668;2023-04-08T12:08:58;17.00;99.90
21602;DHT22;10963;50.934;4.668;2023-04-08T12:11:24;17.10;99.90
21602;DHT22;10963;50.934;4.668;2023-04-08T12:13:50;17.20;99.90
21602;DHT22;10963;50.934;4.668;2023-04-08T12:16:18;17.10;99.90
21602;DHT22;10963;50.934;4.668;2023-04-08T12:18:46;17.20;99.90
21602;DHT22;10963;50.934;4.668;2023-04-08T12:21:12;16.90;99.90
21602;DHT22;10963;50.934;4.668;2023-04-08T12:23:38;17.10;99.90
21602;DHT22;10963;50.934;4.668;2023-04-08T12:26:04;17.20;99.90
21602;DHT22;10963;50.934;4.668;2023-04-08T12:28:29;17.10;99.90
21602;DHT22;10963;50.934;4.668;2023-04-08T12:30:55;17.00;99.90
21602;DHT22;10963;50.934;4.668;2023-04-08T12:33:21;16.50;99.90
21602;DHT22;10963;50.934;4.668;2023-04-08T12:35:51;16.60;99.90
21602;DHT22;10963;50.934;4.668;2023-04-08T12:38:17;16.30;99.90
21602;DHT22;10963;50.934;4.668;2023-04-08T12:40:43;16.00;99.90
21602;DHT22;10963;50.934;4.668;2023-04-08T12:43:08;16.00;99.90
21602;DHT22;10963;50.934;4.668;2023-04-08T12:45:34;15.60;99.90
21602;DHT22;10963;50.934;4.668;2023-04-08T12:48:02;15.50;99.90
21602;DHT22;10963;50.934;4.668;2023-04-08T12:50:28;15.30;99.90
21602;DHT22;10963;50.934;4.668;2023-04-08T12:52:53;15.20;99.90
21602;DHT22;10963;50.934;4.668;2023-04-08T12:55:19;15.20;99.90
21602;DHT22;10963;50.934;4.668;2023-04-08T12:57:49;15.80;99.90
21602;DHT22;10963;50.934;4.668;2023-04-08T13:00:18;16.50;99.90
21602;DHT22;10963;50.934;4.668;2023-04-08T13:02:49;17.00;99.90
21602;DHT22;10963;50.934;4.668;2023-04-08T13:05:15;17.20;99.90
21602;DHT22;10963;50.934;4.668;2023-04-08T13:07:42;17.50;99.90
21602;DHT22;10963;50.934;4.668;2023-04-08T13:10:08;17.50;99.90
21602;DHT22;10963;50.934;4.668;2023-04-08T13:12:34;17.60;99.90
21602;DHT22;10963;50.934;4.668;2023-04-08T13:15:02;17.60;99.90
21602;DHT22;10963;50.934;4.668;2023-04-08T13:17:30;17.60;99.90
21602;DHT22;10963;50.934;4.668;2023-04-08T13:19:56;17.50;99.90
21602;DHT22;10963;50.934;4.668;2023-04-08T13:22:22;17.10;99.90
21602;DHT22;10963;50.934;4.668;2023-04-08T13:24:47;16.90;99.90
21602;DHT22;10963;50.934;4.668;2023-04-08T13:27:15;16.90;99.90
21602;DHT22;10963;50.934;4.668;2023-04-08T13:29:41;17.10;99.90
21602;DHT22;10963;50.934;4.668;2023-04-08T13:32:07;17.10;99.90
21602;DHT22;10963;50.934;4.668;2023-04-08T13:34:33;17.40;99.90
21602;DHT22;10963;50.934;4.668;2023-04-08T13:36:58;17.00;99.90
21602;DHT22;10963;50.934;4.668;2023-04-08T13:39:24;16.10;99.90
21602;DHT22;10963;50.934;4.668;2023-04-08T13:41:50;16.30;99.90
21602;DHT22;10963;50.934;4.668;2023-04-08T13:44:18;16.80;99.90
21602;DHT22;10963;50.934;4.668;2023-04-08T13:46:46;17.30;99.90
21602;DHT22;10963;50.934;4.668;2023-04-08T13:49:12;17.40;99.90
21602;DHT22;10963;50.934;4.668;2023-04-08T13:51:38;17.10;99.90
21602;DHT22;10963;50.934;4.668;2023-04-08T13:54:03;16.80;99.90
21602;DHT22;10963;50.934;4.668;2023-04-08T13:58:56;15.60;99.90
21602;DHT22;10963;50.934;4.668;2023-04-08T14:01:24;15.30;99.90
21602;DHT22;10963;50.934;4.668;2023-04-08T14:03:50;15.20;99.90
21602;DHT22;10963;50.934;4.668;2023-04-08T14:06:16;15.00;99.90
21602;DHT22;10963;50.934;4.668;2023-04-08T14:08:45;15.00;99.90
21602;DHT22;10963;50.934;4.668;2023-04-08T14:11:26;15.20;99.90
21602;DHT22;10963;50.934;4.668;2023-04-08T14:13:54;15.20;99.90
21602;DHT22;10963;50.934;4.668;2023-04-08T14:16:19;15.30;99.90
21602;DHT22;10963;50.934;4.668;2023-04-08T14:18:47;15.40;99.90
21602;DHT22;10963;50.934;4.668;2023-04-08T14:21:14;15.80;99.90
21602;DHT22;10963;50.934;4.668;2023-04-08T14:23:42;16.00;99.90
21602;DHT22;10963;50.934;4.668;2023-04-08T14:26:08;15.90;99.90
21602;DHT22;10963;50.934;4.668;2023-04-08T14:28:38;15.60;99.90
21602;DHT22;10963;50.934;4.668;2023-04-08T14:31:04;15.50;99.90
21602;DHT22;10963;50.934;4.668;2023-04-08T14:33:33;15.30;99.90
21602;DHT22;10963;50.934;4.668;2023-04-08T14:35:59;15.20;99.90
21602;DHT22;10963;50.934;4.668;2023-04-08T14:38:27;15.20;99.90
21602;DHT22;10963;50.934;4.668;2023-04-08T14:40:53;15.40;99.90
21602;DHT22;10963;50.934;4.668;2023-04-08T14:43:19;15.50;99.90
21602;DHT22;10963;50.934;4.668;2023-04-08T14:45:49;15.30;99.90
21602;DHT22;10963;50.934;4.668;2023-04-08T14:48:18;15.20;99.90
21602;DHT22;10963;50.934;4.668;2023-04-08T14:50:44;15.20;99.90
21602;DHT22;10963;50.934;4.668;2023-04-08T14:53:13;15.30;99.90
21602;DHT22;10963;50.934;4.668;2023-04-08T14:55:41;15.40;99.90
21602;DHT22;10963;50.934;4.668;2023-04-08T14:58:07;15.50;99.90
21602;DHT22;10963;50.934;4.668;2023-04-08T15:00:33;15.40;99.90
21602;DHT22;10963;50.934;4.668;2023-04-08T15:03:01;15.40;99.90
21602;DHT22;10963;50.934;4.668;2023-04-08T15:05:28;15.70;99.90
21602;DHT22;10963;50.934;4.668;2023-04-08T15:07:54;16.00;99.90
21602;DHT22;10963;50.934;4.668;2023-04-08T15:10:20;16.00;99.90
21602;DHT22;10963;50.934;4.668;2023-04-08T15:12:51;15.90;99.90
21602;DHT22;10963;50.934;4.668;2023-04-08T15:15:19;16.30;99.90
21602;DHT22;10963;50.934;4.668;2023-04-08T15:17:45;16.00;99.90
21602;DHT22;10963;50.934;4.668;2023-04-08T15:20:13;16.20;99.90
21602;DHT22;10963;50.934;4.668;2023-04-08T15:22:39;16.50;99.90
21602;DHT22;10963;50.934;4.668;2023-04-08T15:25:06;16.50;99.90
21602;DHT22;10963;50.934;4.668;2023-04-08T15:27:32;16.50;99.90
21602;DHT22;10963;50.934;4.668;2023-04-08T15:30:02;16.20;99.90
21602;DHT22;10963;50.934;4.668;2023-04-08T15:32:28;16.00;99.90
21602;DHT22;10963;50.934;4.668;2023-04-08T15:34:56;15.80;99.90
21602;DHT22;10963;50.934;4.668;2023-04-08T15:37:22;15.80;99.90
21602;DHT22;10963;50.934;4.668;2023-04-08T15:39:49;16.30;99.90
21602;DHT22;10963;50.934;4.668;2023-04-08T15:42:17;16.50;99.90
21602;DHT22;10963;50.934;4.668;2023-04-08T15:44:45;16.60;99.90